Time;durP1;ratioP1;P1;durP2;ratioP2;P2;SDS_P1;SDS_P2;PMS_P1;PMS_P2;Temp;Humidity;BMP_temperature;BMP_pressure;BME280_temperature;BME280_humidity;BME280_pressure;Samples;Min_cycle;Max_cycle;Signal;HPM_P1;HPM_P2
2023/12/01 00:01:30;;;;;;;14.33;12.47;;;;;;;-3.58;100.00;94198.66;7395540;19;20391;-95
2023/12/01 00:03:57;;;;;;;13.90;11.40;;;;;;;-3.45;100.00;94217.00;7396129;19;20476;-96
2023/12/01 00:06:25;;;;;;;16.57;11.83;;;;;;;-3.29;100.00;94246.63;7394990;19;20382;-95
2023/12/01 00:08:53;;;;;;;14.00;11.17;;;;;;;-3.12;100.00;94267.44;7396075;19;20457;-95
2023/12/01 00:11:20;;;;;;;14.27;12.83;;;;;;;-3.66;100.00;94188.25;7394861;19;20469;-95
2023/12/01 00:13:47;;;;;;;12.63;11.20;;;;;;;-2.75;100.00;94322.50;7398991;19;20410;-96
2023/12/01 00:16:15;;;;;;;14.83;12.67;;;;;;;-3.10;100.00;94278.25;7397352;19;20406;-95
2023/12/01 00:18:42;;;;;;;15.43;13.60;;;;;;;-3.39;100.00;94239.84;7394509;19;20393;-95
2023/12/01 00:21:10;;;;;;;14.43;12.23;;;;;;;-3.33;100.00;94251.63;7394483;19;20559;-95
2023/12/01 00:23:37;;;;;;;14.13;12.73;;;;;;;-3.45;100.00;94251.34;7394524;19;20389;-95
2023/12/01 00:26:05;;;;;;;15.80;12.83;;;;;;;-3.31;100.00;94251.31;7394518;19;20377;-95
2023/12/01 00:28:32;;;;;;;21.10;13.70;;;;;;;-3.32;100.00;94265.28;7395549;19;20893;-94
2023/12/01 00:30:59;;;;;;;17.47;13.40;;;;;;;-4.42;100.00;94105.34;7396067;19;20531;-95
2023/12/01 00:33:27;;;;;;;19.03;14.07;;;;;;;-2.90;100.00;94333.19;7395202;19;20381;-96
2023/12/01 00:35:54;;;;;;;18.17;14.47;;;;;;;-3.15;100.00;94295.69;7396810;19;20442;-94
2023/12/01 00:38:22;;;;;;;17.60;12.47;;;;;;;-4.24;100.00;94127.72;7395332;19;20516;-93
2023/12/01 00:40:50;;;;;;;20.80;13.97;;;;;;;-3.29;100.00;94277.63;7392597;19;20478;-94
2023/12/01 00:43:18;;;;;;;24.70;14.87;;;;;;;-2.74;100.00;94350.66;7395268;19;20370;-94
2023/12/01 00:45:45;;;;;;;17.03;12.50;;;;;;;-3.67;100.00;94213.31;7394987;19;20379;-94
2023/12/01 00:48:13;;;;;;;14.50;12.97;;;;;;;-3.63;100.00;94219.41;7394854;19;20409;-96
2023/12/01 00:50:40;;;;;;;14.80;12.30;;;;;;;-3.69;100.00;94207.66;7395073;19;20485;-95
2023/12/01 00:53:08;;;;;;;17.50;13.87;;;;;;;-3.24;100.00;94272.34;7394597;19;20386;-96
2023/12/01 00:55:36;;;;;;;17.87;13.33;;;;;;;-2.66;100.00;94351.03;7394911;19;20440;-95
2023/12/01 00:58:03;;;;;;;16.87;13.87;;;;;;;-3.06;100.00;94291.38;7394274;19;20706;-95
2023/12/01 01:00:31;;;;;;;20.37;13.93;;;;;;;-3.12;100.00;94270.03;7392986;19;20513;-94
2023/12/01 01:02:59;;;;;;;17.60;14.73;;;;;;;-4.21;100.00;94114.25;7395480;19;20384;-95
2023/12/01 01:05:26;;;;;;;18.03;14.87;;;;;;;-3.39;100.00;94237.25;7408331;19;20386;-92
2023/12/01 01:07:53;;;;;;;19.10;13.00;;;;;;;-4.04;100.00;94146.41;7421319;19;20366;-91
2023/12/01 01:10:21;;;;;;;17.20;14.37;;;;;;;-2.99;100.00;94299.50;7416803;19;20413;-94
2023/12/01 01:12:48;;;;;;;17.47;13.87;;;;;;;-3.42;100.00;94243.00;7409331;19;20685;-95
2023/12/01 01:15:15;;;;;;;16.10;14.07;;;;;;;-3.47;100.00;94240.53;7403533;19;20382;-94
2023/12/01 01:17:43;;;;;;;17.70;14.43;;;;;;;-3.66;100.00;94214.81;7402682;19;20349;-95
2023/12/01 01:20:10;;;;;;;24.40;13.83;;;;;;;-3.57;100.00;94225.25;7400270;19;20374;-94
2023/12/01 01:22:38;;;;;;;19.10;15.13;;;;;;;-3.66;100.00;94214.06;7401142;19;20379;-94
2023/12/01 01:25:06;;;;;;;19.20;14.20;;;;;;;-3.83;100.00;94183.69;7400218;19;20392;-95
2023/12/01 01:27:33;;;;;;;17.57;13.73;;;;;;;-3.17;100.00;94272.72;7400273;19;20378;-94
2023/12/01 01:30:01;;;;;;;18.37;13.90;;;;;;;-3.57;100.00;94220.84;7400989;19;20840;-93
2023/12/01 01:32:31;;;;;;;19.27;12.90;;;;;;;-3.27;100.00;94265.19;7397896;19;20394;-94
2023/12/01 01:34:59;;;;;;;16.13;14.43;;;;;;;-3.25;100.00;94260.50;7401184;19;20480;-95
2023/12/01 01:37:26;;;;;;;19.47;14.10;;;;;;;-3.41;100.00;94221.31;7401518;19;20403;-95
2023/12/01 01:39:53;;;;;;;23.43;15.43;;;;;;;-3.18;100.00;94247.19;7399689;19;20380;-94
2023/12/01 01:42:21;;;;;;;16.37;12.57;;;;;;;-3.04;100.00;94284.09;7397963;19;20405;-94
2023/12/01 01:44:48;;;;;;;22.00;15.40;;;;;;;-3.13;100.00;94276.25;7401392;19;20401;-94
2023/12/01 01:47:16;;;;;;;18.80;14.77;;;;;;;-3.64;100.00;94194.66;7400972;19;20366;-93
2023/12/01 01:49:45;;;;;;;18.87;15.10;;;;;;;-3.63;100.00;94188.44;7399814;19;20362;-95
2023/12/01 01:52:14;;;;;;;21.27;15.93;;;;;;;-3.41;100.00;94215.38;7398253;19;20426;-95
2023/12/01 01:54:43;;;;;;;17.97;14.23;;;;;;;-2.97;100.00;94290.38;7399544;19;20374;-95
2023/12/01 01:57:13;;;;;;;23.30;17.90;;;;;;;-3.25;100.00;94244.22;7400963;19;20388;-95
2023/12/01 01:59:43;;;;;;;19.10;16.43;;;;;;;-3.15;100.00;94251.78;7399630;19;20403;-94
2023/12/01 02:02:10;;;;;;;22.63;14.73;;;;;;;-3.28;100.00;94240.41;7397550;19;20903;-95
2023/12/01 02:04:38;;;;;;;20.60;16.07;;;;;;;-2.62;100.00;94334.63;7400040;19;20374;-95
2023/12/01 02:07:08;;;;;;;19.83;14.70;;;;;;;-3.37;100.00;94231.81;7399371;19;20382;-96
2023/12/01 02:09:35;;;;;;;25.23;15.13;;;;;;;-3.30;100.00;94232.97;7398938;19;20374;-95
2023/12/01 02:12:03;;;;;;;19.90;15.20;;;;;;;-3.05;100.00;94272.25;7397588;19;20425;-95
2023/12/01 02:14:30;;;;;;;18.10;14.90;;;;;;;-3.01;100.00;94276.53;7399403;19;20453;-94
2023/12/01 02:16:58;;;;;;;22.00;14.60;;;;;;;-3.45;100.00;94214.44;7399678;19;20371;-95
2023/12/01 02:19:25;;;;;;;19.33;16.47;;;;;;;-3.52;100.00;94206.31;7397695;19;20847;-93
2023/12/01 02:21:54;;;;;;;23.20;16.37;;;;;;;-3.58;100.00;94187.56;7396288;19;20441;-94
2023/12/01 02:24:22;;;;;;;16.63;14.73;;;;;;;-2.65;100.00;94319.72;7399132;19;20382;-94
2023/12/01 02:26:49;;;;;;;19.70;15.50;;;;;;;-3.23;100.00;94222.22;7399909;19;20369;-95
2023/12/01 02:29:16;;;;;;;23.10;17.30;;;;;;;-2.93;100.00;94276.91;7399403;19;20395;-95
2023/12/01 02:31:44;;;;;;;19.50;14.70;;;;;;;-3.56;100.00;94182.88;7397738;19;20413;-94
2023/12/01 02:34:12;;;;;;;18.73;13.83;;;;;;;-3.22;100.00;94244.41;7402401;19;20446;-95
2023/12/01 02:36:40;;;;;;;18.67;14.87;;;;;;;-3.33;100.00;94248.28;7401032;19;20374;-95
2023/12/01 02:39:08;;;;;;;17.70;14.77;;;;;;;-3.17;100.00;94279.72;7400824;19;20395;-96
2023/12/01 02:41:37;;;;;;;22.67;17.00;;;;;;;-3.40;100.00;94224.66;7398994;19;20453;-94
2023/12/01 02:44:04;;;;;;;25.30;17.93;;;;;;;-3.64;100.00;94193.88;7401488;19;20354;-94
2023/12/01 02:46:32;;;;;;;22.37;15.80;;;;;;;-3.41;100.00;94241.19;7402869;19;20362;-94
2023/12/01 02:48:59;;;;;;;26.13;18.00;;;;;;;-3.35;100.00;94230.47;7400803;19;20387;-95
2023/12/01 02:51:27;;;;;;;22.73;15.10;;;;;;;-3.62;100.00;94200.28;7401623;19;20468;-94
2023/12/01 02:53:54;;;;;;;24.10;17.67;;;;;;;-3.02;100.00;94290.50;7401129;19;20429;-95
2023/12/01 02:56:21;;;;;;;23.57;19.07;;;;;;;-3.00;100.00;94278.06;7400770;19;20874;-94
2023/12/01 02:58:49;;;;;;;22.37;17.73;;;;;;;-3.12;100.00;94270.03;7400840;19;20366;-95
2023/12/01 03:01:17;;;;;;;25.07;18.23;;;;;;;-2.69;100.00;94340.19;7399206;19;20451;-94
2023/12/01 03:03:44;;;;;;;27.40;18.20;;;;;;;-3.61;100.00;94222.47;7400445;19;20377;-95
2023/12/01 03:06:12;;;;;;;23.20;17.73;;;;;;;-3.20;100.00;94275.13;7400308;19;20374;-95
2023/12/01 03:08:39;;;;;;;25.87;19.33;;;;;;;-3.12;100.00;94288.13;7400608;19;20378;-95
2023/12/01 03:11:07;;;;;;;26.40;17.93;;;;;;;-3.58;100.00;94223.72;7399631;19;20413;-94
2023/12/01 03:13:35;;;;;;;27.80;19.07;;;;;;;-3.40;100.00;94253.06;7404401;19;20377;-94
2023/12/01 03:16:02;;;;;;;27.90;18.43;;;;;;;-3.25;100.00;94286.31;7430292;19;20374;-93
2023/12/01 03:18:29;;;;;;;29.03;17.90;;;;;;;-3.33;100.00;94264.53;7429025;19;20432;-93
2023/12/01 03:20:57;;;;;;;26.27;18.23;;;;;;;-2.91;100.00;94316.91;7403633;19;20424;-94
2023/12/01 03:23:25;;;;;;;28.07;18.30;;;;;;;-3.01;100.00;94301.59;7399411;19;20891;-94
2023/12/01 03:25:52;;;;;;;24.43;18.23;;;;;;;-3.34;100.00;94242.34;7399475;19;20374;-95
2023/12/01 03:28:19;;;;;;;30.73;19.10;;;;;;;-3.36;100.00;94233.34;7399838;19;20398;-95
2023/12/01 03:30:47;;;;;;;29.20;20.20;;;;;;;-3.55;100.00;94193.97;7398742;19;20361;-95
2023/12/01 03:33:15;;;;;;;32.90;21.33;;;;;;;-3.08;100.00;94272.78;7399612;19;20392;-95
2023/12/01 03:35:42;;;;;;;29.97;19.10;;;;;;;-2.81;100.00;94313.31;7399045;19;20397;-95
2023/12/01 03:38:09;;;;;;;28.13;19.90;;;;;;;-3.44;100.00;94216.72;7398868;19;20373;-95
2023/12/01 03:40:39;;;;;;;31.87;22.23;;;;;;;-3.39;100.00;94215.84;7398621;19;20807;-95
2023/12/01 03:43:06;;;;;;;31.53;20.37;;;;;;;-3.11;100.00;94261.22;7399166;19;20386;-94
2023/12/01 03:45:36;;;;;;;30.40;21.80;;;;;;;-2.91;100.00;94272.97;7398738;19;20888;-94
2023/12/01 03:48:04;;;;;;;30.00;19.20;;;;;;;-2.86;100.00;94290.19;7399220;19;20378;-94
2023/12/01 03:50:31;;;;;;;29.83;18.53;;;;;;;-3.02;100.00;94243.22;7398591;19;20398;-94
2023/12/01 03:52:59;;;;;;;31.30;20.20;;;;;;;-2.87;100.00;94276.50;7399262;19;20370;-95
2023/12/01 03:55:26;;;;;;;30.57;21.50;;;;;;;-3.51;100.00;94205.25;7398690;19;20370;-93
2023/12/01 03:57:53;;;;;;;30.40;22.03;;;;;;;-2.98;100.00;94273.34;7399037;19;20383;-94
2023/12/01 04:00:22;;;;;;;34.13;21.27;;;;;;;-2.94;100.00;94290.84;7397909;19;20410;-94
2023/12/01 04:02:50;;;;;;;32.20;19.63;;;;;;;-3.08;100.00;94277.97;7399272;19;20378;-94
2023/12/01 04:05:18;;;;;;;35.20;22.37;;;;;;;-3.20;100.00;94257.81;7398594;19;20388;-96
2023/12/01 04:07:51;;;;;;;35.30;22.53;;;;;;;-2.90;100.00;94310.69;7399187;19;20397;-95
2023/12/01 04:10:23;;;;;;;30.00;21.10;;;;;;;-3.34;100.00;94231.22;7398139;19;20886;-95
2023/12/01 04:12:51;;;;;;;34.33;21.83;;;;;;;-3.29;100.00;94247.41;7398399;19;20370;-95
2023/12/01 04:15:19;;;;;;;31.47;23.07;;;;;;;-3.07;100.00;94293.19;7398196;19;20381;-94
2023/12/01 04:17:48;;;;;;;33.50;23.53;;;;;;;-2.82;100.00;94315.13;7397329;19;20398;-94
2023/12/01 04:20:25;;;;;;;32.60;22.43;;;;;;;-4.05;100.00;94132.75;7399494;19;20365;-94
2023/12/01 04:22:57;;;;;;;32.70;22.53;;;;;;;-3.36;100.00;94223.00;7397769;19;20374;-94
2023/12/01 04:25:25;;;;;;;35.93;24.03;;;;;;;-3.45;100.00;94219.59;7398910;19;20377;-94
2023/12/01 04:27:53;;;;;;;39.30;24.80;;;;;;;-3.31;100.00;94241.00;7398743;19;20388;-95
2023/12/01 04:30:22;;;;;;;35.13;21.33;;;;;;;-3.30;100.00;94251.03;7398502;19;20371;-93
2023/12/01 04:32:53;;;;;;;32.60;21.47;;;;;;;-3.15;100.00;94262.88;7397998;19;20400;-93
2023/12/01 04:35:28;;;;;;;32.60;23.27;;;;;;;-3.27;100.00;94237.53;7398237;19;20393;-96
2023/12/01 04:37:57;;;;;;;37.33;20.90;;;;;;;-3.33;100.00;94212.13;7398158;19;20370;-94
2023/12/01 04:40:29;;;;;;;32.90;23.77;;;;;;;-2.61;100.00;94338.00;7398870;19;20374;-94
2023/12/01 04:42:58;;;;;;;32.77;21.47;;;;;;;-3.13;100.00;94265.16;7397833;19;20382;-94
2023/12/01 04:45:27;;;;;;;35.23;24.30;;;;;;;-3.19;100.00;94261.94;7403958;19;20440;-94
2023/12/01 04:47:55;;;;;;;36.00;23.00;;;;;;;-3.42;100.00;94227.53;7405384;19;20462;-95
2023/12/01 04:50:28;;;;;;;35.53;24.47;;;;;;;-2.64;100.00;94325.66;7404234;19;20677;-94
2023/12/01 04:52:57;;;;;;;34.43;23.60;;;;;;;-3.05;100.00;94275.59;7405148;19;20378;-94
2023/12/01 04:55:26;;;;;;;31.83;22.03;;;;;;;-3.49;100.00;94203.13;7405603;19;20380;-93
2023/12/01 04:57:55;;;;;;;30.47;22.10;;;;;;;-3.40;100.00;94216.91;7404743;19;20382;-94
2023/12/01 05:00:25;;;;;;;34.00;20.93;;;;;;;-2.90;100.00;94297.75;7404112;19;20426;-93
2023/12/01 05:03:06;;;;;;;35.00;23.90;;;;;;;-3.30;100.00;94251.03;7406230;19;20434;-93
2023/12/01 05:05:36;;;;;;;36.20;22.47;;;;;;;-2.62;100.00;94341.63;7404858;19;20372;-94
2023/12/01 05:08:08;;;;;;;36.13;24.13;;;;;;;-3.27;100.00;94253.03;7404395;19;20376;-94
2023/12/01 05:10:37;;;;;;;33.60;22.07;;;;;;;-3.35;100.00;94248.53;7420808;19;20408;-90
2023/12/01 05:13:06;;;;;;;32.47;22.57;;;;;;;-3.96;100.00;94153.50;7432134;19;20438;-91
2023/12/01 05:15:36;;;;;;;36.23;23.93;;;;;;;-3.29;100.00;94249.97;7414886;19;20448;-94
2023/12/01 05:18:11;;;;;;;38.20;25.10;;;;;;;-2.70;100.00;94345.66;7406300;19;20401;-94
2023/12/01 05:20:40;;;;;;;37.67;22.13;;;;;;;-2.63;100.00;94358.22;7402979;19;20400;-94
2023/12/01 05:23:09;;;;;;;35.97;27.07;;;;;;;-3.13;100.00;94288.41;7403646;19;20363;-95
2023/12/01 05:25:41;;;;;;;34.73;23.23;;;;;;;-3.80;100.00;94195.25;7407068;19;20449;-94
2023/12/01 05:28:11;;;;;;;35.03;22.50;;;;;;;-3.60;100.00;94218.84;7415387;19;20374;-94
2023/12/01 05:30:41;;;;;;;39.13;24.17;;;;;;;-4.23;100.00;94118.94;7409646;19;20358;-94
2023/12/01 05:33:08;;;;;;;35.70;24.50;;;;;;;-3.06;100.00;94283.63;7407273;19;20365;-94
2023/12/01 05:35:39;;;;;;;32.77;20.60;;;;;;;-3.43;100.00;94181.34;7403360;19;20433;-86
2023/12/01 05:38:07;;;;;;;32.23;20.87;;;;;;;-3.21;100.00;94230.44;7403245;19;20404;-85
2023/12/01 05:40:36;;;;;;;39.10;25.47;;;;;;;-3.15;100.00;94242.19;7401344;19;20377;-85
2023/12/01 05:43:05;;;;;;;38.37;23.87;;;;;;;-3.54;100.00;94203.25;7401879;19;20426;-86
2023/12/01 05:45:35;;;;;;;35.40;23.47;;;;;;;-3.05;100.00;94285.16;7400004;19;20374;-85
2023/12/01 05:48:06;;;;;;;42.90;22.93;;;;;;;-3.28;100.00;94264.41;7401716;19;20692;-86
2023/12/01 05:50:36;;;;;;;40.73;23.33;;;;;;;-3.65;100.00;94195.69;7400654;19;20394;-86
2023/12/01 05:53:07;;;;;;;42.93;23.80;;;;;;;-3.02;100.00;94300.06;7401130;19;20362;-85
2023/12/01 05:55:35;;;;;;;33.57;21.30;;;;;;;-3.14;100.00;94273.97;7399676;19;20399;-86
2023/12/01 05:58:10;;;;;;;39.70;23.50;;;;;;;-2.85;100.00;94278.78;7400992;19;20679;-85
2023/12/01 06:00:39;;;;;;;38.50;23.77;;;;;;;-3.44;100.00;94185.72;7400245;19;20419;-85
2023/12/01 06:03:09;;;;;;;33.33;22.03;;;;;;;-3.33;100.00;94225.78;7399075;19;20378;-85
2023/12/01 06:05:38;;;;;;;32.30;22.30;;;;;;;-3.21;100.00;94240.75;7401232;19;20386;-85
2023/12/01 06:08:08;;;;;;;40.13;23.37;;;;;;;-3.63;100.00;94187.66;7400845;19;20753;-86
2023/12/01 06:10:36;;;;;;;35.53;20.70;;;;;;;-3.46;100.00;94218.06;7400403;19;20389;-86
2023/12/01 06:13:04;;;;;;;38.83;24.50;;;;;;;-3.94;100.00;94162.47;7400644;19;20429;-86
2023/12/01 06:15:32;;;;;;;31.83;21.00;;;;;;;-2.91;100.00;94329.06;7400956;19;20418;-90
2023/12/01 06:18:01;;;;;;;41.87;24.27;;;;;;;-2.67;100.00;94365.78;7402314;19;20867;-91
2023/12/01 06:20:30;;;;;;;38.67;24.20;;;;;;;-3.02;100.00;94324.09;7402749;19;20753;-91
2023/12/01 06:23:01;;;;;;;38.00;21.80;;;;;;;-2.69;100.00;94360.13;7399843;19;20417;-92
2023/12/01 06:25:31;;;;;;;38.47;23.40;;;;;;;-2.71;100.00;94363.00;7401769;19;20385;-92
2023/12/01 06:28:04;;;;;;;40.77;22.83;;;;;;;-2.67;100.00;94373.53;7402347;19;20739;-92
2023/12/01 06:30:34;;;;;;;34.87;22.37;;;;;;;-2.74;100.00;94368.00;7401529;19;20724;-92
2023/12/01 06:33:05;;;;;;;39.73;23.67;;;;;;;-2.77;100.00;94387.44;7401105;19;20374;-91
2023/12/01 06:35:33;;;;;;;38.70;24.37;;;;;;;-3.32;100.00;94322.13;7401382;19;20441;-92
2023/12/01 06:38:00;;;;;;;35.17;22.43;;;;;;;-3.79;100.00;94250.97;7400796;19;20873;-92
2023/12/01 06:40:28;;;;;;;41.47;24.70;;;;;;;-3.11;100.00;94333.56;7400311;19;20409;-92
2023/12/01 06:42:55;;;;;;;47.17;26.07;;;;;;;-2.73;100.00;94385.03;7398664;19;20796;-92
2023/12/01 06:45:28;;;;;;;38.13;27.70;;;;;;;-3.31;100.00;94296.00;7400478;19;20369;-92
2023/12/01 06:47:59;;;;;;;46.27;28.40;;;;;;;-3.22;100.00;94295.31;7401524;19;20374;-92
2023/12/01 06:50:29;;;;;;;39.47;26.17;;;;;;;-3.45;100.00;94271.25;7400329;19;20461;-92
2023/12/01 06:53:00;;;;;;;40.73;24.03;;;;;;;-3.49;100.00;94276.19;7400211;19;20418;-93
2023/12/01 06:55:28;;;;;;;35.73;26.00;;;;;;;-2.64;100.00;94401.41;7400532;19;20374;-91
2023/12/01 06:57:56;;;;;;;44.80;25.77;;;;;;;-3.64;100.00;94274.69;7401866;19;20373;-92
2023/12/01 07:00:29;;;;;;;47.83;25.97;;;;;;;-3.44;100.00;94307.09;7400410;19;20374;-92
2023/12/01 07:03:01;;;;;;;38.63;26.27;;;;;;;-3.43;100.00;94313.81;7398483;19;20380;-92
2023/12/01 07:05:29;;;;;;;35.10;25.27;;;;;;;-3.43;100.00;94331.88;7399827;19;20399;-93
2023/12/01 07:07:58;;;;;;;40.50;26.03;;;;;;;-3.41;100.00;94322.03;7397937;19;20886;-92
2023/12/01 07:10:26;;;;;;;46.93;27.27;;;;;;;-3.08;100.00;94365.81;7415665;19;20388;-92
2023/12/01 07:12:54;;;;;;;41.73;24.73;;;;;;;-3.36;100.00;94332.25;7413319;19;20357;-92
2023/12/01 07:15:24;;;;;;;45.77;25.40;;;;;;;-2.63;100.00;94421.03;7402753;19;20406;-91
2023/12/01 07:17:56;;;;;;;39.20;24.13;;;;;;;-3.28;100.00;94335.97;7399329;19;20399;-91
2023/12/01 07:20:24;;;;;;;39.90;24.90;;;;;;;-3.49;100.00;94302.03;7399655;19;20378;-92
2023/12/01 07:22:53;;;;;;;36.80;26.20;;;;;;;-2.60;100.00;94406.75;7397884;19;20361;-91
2023/12/01 07:25:21;;;;;;;37.40;24.13;;;;;;;-2.63;100.00;94415.88;7399114;19;20841;-92
2023/12/01 07:27:52;;;;;;;41.87;23.30;;;;;;;-2.63;100.00;94422.84;7399026;19;20372;-92
2023/12/01 07:30:19;;;;;;;35.17;23.20;;;;;;;-2.58;100.00;94438.25;7399086;19;20461;-91
2023/12/01 07:32:47;;;;;;;34.37;21.57;;;;;;;-3.37;100.00;94327.38;7399308;19;20870;-92
2023/12/01 07:35:16;;;;;;;33.30;22.90;;;;;;;-3.36;100.00;94336.66;7398788;19;20386;-92
2023/12/01 07:37:46;;;;;;;32.50;22.20;;;;;;;-2.58;100.00;94451.19;7399220;19;20390;-92
2023/12/01 07:40:21;;;;;;;38.57;22.40;;;;;;;-2.55;100.00;94438.44;7398887;19;20377;-91
2023/12/01 07:42:55;;;;;;;33.63;22.57;;;;;;;-3.21;100.00;94338.94;7398156;19;20369;-92
2023/12/01 07:45:23;;;;;;;38.00;23.50;;;;;;;-3.04;100.00;94371.97;7398905;19;20378;-92
2023/12/01 07:47:52;;;;;;;33.40;22.50;;;;;;;-3.24;100.00;94359.41;7398804;19;20386;-93
2023/12/01 07:50:20;;;;;;;33.07;21.13;;;;;;;-2.59;100.00;94460.00;7398475;19;20390;-92
2023/12/01 07:52:49;;;;;;;43.20;22.93;;;;;;;-3.25;100.00;94363.81;7399019;19;20377;-91
2023/12/01 07:55:19;;;;;;;33.80;20.90;;;;;;;-3.34;100.00;94348.25;7398949;19;20409;-92
2023/12/01 07:57:47;;;;;;;35.27;22.50;;;;;;;-2.88;100.00;94398.28;7400175;19;20365;-92
2023/12/01 08:00:16;;;;;;;33.33;22.33;;;;;;;-3.14;100.00;94354.06;7398010;19;20370;-92
2023/12/01 08:02:52;;;;;;;43.07;24.27;;;;;;;-3.13;100.00;94353.00;7396930;19;20386;-91
2023/12/01 08:05:23;;;;;;;37.00;21.80;;;;;;;-3.00;100.00;94396.94;7398861;19;20381;-92
2023/12/01 08:07:53;;;;;;;34.70;21.03;;;;;;;-2.82;100.00;94400.44;7398283;19;20370;-92
2023/12/01 08:10:25;;;;;;;33.47;20.27;;;;;;;-3.33;100.00;94320.59;7398306;19;20365;-92
2023/12/01 08:12:56;;;;;;;34.93;22.63;;;;;;;-2.86;100.00;94402.09;7398310;19;20381;-92
2023/12/01 08:15:26;;;;;;;34.30;21.80;;;;;;;-3.21;100.00;94371.75;7398031;19;20387;-90
2023/12/01 08:17:56;;;;;;;36.60;23.07;;;;;;;-2.45;100.00;94465.94;7397170;19;20397;-92
2023/12/01 08:20:24;;;;;;;33.20;19.70;;;;;;;-3.43;100.00;94305.28;7396427;19;20452;-92
2023/12/01 08:22:51;;;;;;;36.97;21.73;;;;;;;-3.41;100.00;94303.94;7396052;19;20391;-91
2023/12/01 08:25:21;;;;;;;34.40;22.20;;;;;;;-3.01;100.00;94368.78;7397310;19;20449;-92
2023/12/01 08:27:51;;;;;;;35.93;22.80;;;;;;;-3.17;100.00;94339.91;7397023;19;20385;-91
2023/12/01 08:30:19;;;;;;;34.80;22.23;;;;;;;-3.00;100.00;94345.25;7400075;19;20693;-93
2023/12/01 08:32:49;;;;;;;37.00;22.93;;;;;;;-2.80;100.00;94382.84;7397656;19;20403;-93
2023/12/01 08:35:17;;;;;;;38.13;24.10;;;;;;;-2.92;100.00;94369.66;7397337;19;20374;-94
2023/12/01 08:37:46;;;;;;;37.67;22.00;;;;;;;-3.07;100.00;94360.38;7398179;19;20382;-93
2023/12/01 08:40:13;;;;;;;38.60;23.07;;;;;;;-2.33;100.00;94445.50;7397781;19;20712;-92
2023/12/01 08:42:42;;;;;;;34.67;20.27;;;;;;;-2.23;100.00;94458.22;7397861;19;20382;-93
2023/12/01 08:45:10;;;;;;;35.70;22.30;;;;;;;-2.72;100.00;94399.50;7397569;19;20868;-92
2023/12/01 08:47:39;;;;;;;29.27;20.77;;;;;;;-3.12;100.00;94336.44;7403974;19;20378;-93
2023/12/01 08:50:07;;;;;;;35.03;23.33;;;;;;;-2.70;100.00;94434.34;7397170;19;20362;-93
2023/12/01 08:52:40;;;;;;;39.93;23.53;;;;;;;-2.42;100.00;94486.03;7407559;19;20377;-92
2023/12/01 08:55:07;;;;;;;37.53;22.77;;;;;;;-3.16;100.00;94390.53;7427229;19;20400;-90
2023/12/01 08:57:35;;;;;;;37.60;23.43;;;;;;;-2.76;100.00;94434.75;7418178;19;20398;-93
2023/12/01 09:00:04;;;;;;;40.07;24.60;;;;;;;-3.20;100.00;94384.41;7407358;19;20396;-93
2023/12/01 09:02:31;;;;;;;41.80;26.50;;;;;;;-2.65;100.00;94443.84;7396337;19;20500;-93
2023/12/01 09:04:59;;;;;;;39.10;23.13;;;;;;;-3.10;100.00;94357.59;7396838;19;20394;-93
2023/12/01 09:07:26;;;;;;;39.67;25.83;;;;;;;-2.65;100.00;94422.38;7398284;19;20378;-93
2023/12/01 09:09:59;;;;;;;41.40;26.50;;;;;;;-3.02;100.00;94372.44;7394691;19;20468;-94
2023/12/01 09:12:27;;;;;;;40.93;24.90;;;;;;;-3.49;100.00;94273.63;7394215;19;20862;-93
2023/12/01 09:14:54;;;;;;;42.50;25.33;;;;;;;-2.67;100.00;94389.06;7396350;19;20464;-93
2023/12/01 09:17:22;;;;;;;41.10;24.50;;;;;;;-2.00;100.00;94484.94;7395975;19;20884;-93
2023/12/01 09:19:50;;;;;;;50.37;30.20;;;;;;;-2.40;100.00;94432.97;7394834;19;20391;-92
2023/12/01 09:22:17;;;;;;;38.60;21.93;;;;;;;-2.32;100.00;94451.44;7394463;19;20714;-91
2023/12/01 09:24:45;;;;;;;38.73;26.10;;;;;;;-1.75;100.00;94504.31;7397763;19;20390;-93
2023/12/01 09:27:14;;;;;;;33.93;22.60;;;;;;;-2.29;100.00;94441.28;7401422;19;20365;-95
2023/12/01 09:29:41;;;;;;;33.47;22.17;;;;;;;-2.16;100.00;94445.66;7396514;19;20370;-91
2023/12/01 09:32:09;;;;;;;41.90;24.83;;;;;;;-2.41;100.00;94434.00;7398871;19;20898;-95
2023/12/01 09:34:36;;;;;;;38.47;24.40;;;;;;;-2.87;100.00;94379.13;7403634;19;20365;-93
2023/12/01 09:37:03;;;;;;;42.60;22.90;;;;;;;-2.06;100.00;94486.09;7403848;19;20362;-93
2023/12/01 09:39:31;;;;;;;44.83;25.30;;;;;;;-2.29;100.00;94467.16;7403455;19;20389;-92
2023/12/01 09:42:05;;;;;;;40.90;25.30;;;;;;;-2.91;100.00;94373.78;7401681;19;20405;-95
2023/12/01 09:44:34;;;;;;;37.70;23.13;;;;;;;-2.28;100.00;94452.38;7403467;19;20394;-93
2023/12/01 09:47:03;;;;;;;34.40;22.77;;;;;;;-2.16;100.00;94471.53;7402761;19;20370;-94
2023/12/01 09:49:33;;;;;;;46.57;23.57;;;;;;;-2.35;100.00;94476.06;7402650;19;20379;-93
2023/12/01 09:52:05;;;;;;;40.60;23.70;;;;;;;-1.90;100.00;94520.94;7401386;19;20408;-93
2023/12/01 09:54:32;;;;;;;35.10;23.97;;;;;;;-2.36;100.00;94440.16;7402903;19;20405;-94
2023/12/01 09:57:06;;;;;;;33.13;23.70;;;;;;;-2.65;100.00;94383.59;7402501;19;20396;-93
2023/12/01 09:59:36;;;;;;;33.13;20.43;;;;;;;-2.54;100.00;94377.13;7404613;19;20369;-93
2023/12/01 10:02:04;;;;;;;33.37;21.53;;;;;;;-2.80;100.00;94346.66;7400154;19;20484;-91
2023/12/01 10:04:33;;;;;;;32.00;23.23;;;;;;;-2.54;100.00;94377.91;7402052;19;20362;-94
2023/12/01 10:07:01;;;;;;;32.37;21.60;;;;;;;-2.11;100.00;94439.63;7402292;19;20384;-94
2023/12/01 10:09:35;;;;;;;35.13;21.60;;;;;;;-1.84;100.00;94493.88;7401975;19;20365;-94
2023/12/01 10:12:09;;;;;;;32.60;21.97;;;;;;;-2.94;100.00;94325.22;7400596;19;20390;-92
2023/12/01 10:14:38;;;;;;;28.30;19.60;;;;;;;-1.75;100.00;94493.94;7402129;19;20394;-93
2023/12/01 10:17:07;;;;;;;35.10;21.73;;;;;;;-2.11;100.00;94445.56;7402027;19;20381;-93
2023/12/01 10:19:45;;;;;;;33.47;21.70;;;;;;;-2.95;100.00;94284.91;7399947;19;20389;-94
2023/12/01 10:22:13;;;;;;;30.70;21.00;;;;;;;-2.09;100.00;94420.13;7399702;19;20501;-93
2023/12/01 10:25:04;;;;;;;35.57;24.47;;;;;;;-2.45;100.00;94360.63;7401840;19;20457;-94
2023/12/01 10:27:32;;;;;;;37.00;21.70;;;;;;;-2.56;100.00;94390.34;7401586;19;20382;-93
2023/12/01 10:30:14;;;;;;;38.43;23.00;;;;;;;-2.28;100.00;94378.09;7401850;19;20362;-93
2023/12/01 10:32:41;;;;;;;35.30;20.30;;;;;;;-2.16;100.00;94416.41;7406986;19;20381;-90
2023/12/01 10:35:09;;;;;;;37.30;22.90;;;;;;;-2.35;100.00;94392.53;7422443;19;20382;-94
2023/12/01 10:37:37;;;;;;;35.37;22.90;;;;;;;-1.58;100.00;94470.00;7410310;19;20878;-93
2023/12/01 10:40:10;;;;;;;36.53;21.17;;;;;;;-1.76;100.00;94427.66;7401773;19;20732;-94
2023/12/01 10:42:37;;;;;;;32.70;22.80;;;;;;;-1.98;100.00;94394.03;7400213;19;20358;-93
2023/12/01 10:45:05;;;;;;;29.17;19.70;;;;;;;-2.44;100.00;94367.34;7401765;19;20700;-95
2023/12/01 10:47:32;;;;;;;30.70;19.70;;;;;;;-2.47;100.00;94373.09;7400854;19;20925;-94
2023/12/01 10:50:02;;;;;;;31.80;20.43;;;;;;;-1.74;100.00;94466.22;7401018;19;20365;-93
2023/12/01 10:52:32;;;;;;;30.57;19.37;;;;;;;-2.82;100.00;94315.13;7398737;19;20387;-93
2023/12/01 10:54:59;;;;;;;32.03;20.97;;;;;;;-1.62;100.00;94459.44;7401334;19;20386;-94
2023/12/01 10:57:38;;;;;;;28.17;19.03;;;;;;;-3.02;100.00;94287.16;7400539;19;20870;-93
2023/12/01 11:00:19;;;;;;;28.73;19.27;;;;;;;-1.57;100.00;94466.34;7401025;19;20385;-94
2023/12/01 11:02:50;;;;;;;30.50;19.03;;;;;;;-1.95;100.00;94433.03;7401048;19;20397;-94
2023/12/01 11:05:18;;;;;;;30.47;19.57;;;;;;;-2.26;100.00;94406.31;7402320;19;20373;-95
2023/12/01 11:08:07;;;;;;;30.60;20.53;;;;;;;-1.81;100.00;94477.75;7400113;19;20378;-94
2023/12/01 11:11:00;;;;;;;28.33;18.80;;;;;;;-1.64;100.00;94458.97;7400584;19;20369;-93
2023/12/01 11:14:10;;;;;;;30.03;18.07;;;;;;;-1.95;100.00;94445.97;7401958;19;20370;-93
2023/12/01 11:16:39;;;;;;;27.17;18.10;;;;;;;-2.79;100.00;94350.78;7399562;19;20373;-94
2023/12/01 11:19:08;;;;;;;26.70;19.10;;;;;;;-2.16;100.00;94450.81;7398966;19;20389;-93